Tropical Cyclones
[Index]
Main Index Home Page Stock Weather Photos Extreme Storms Discussion Storm News and Storm Chasing Reports Tropical Cyclones / Hurricanes / Typhoons Weather Data and Links Wild Fires / Bushfires Weather Observation Techniques Weather Picture Catalogue Tornado Pictures and Reports Stock Video Footage and DVDs for sale
Season 1985-1986 Tropical Cyclone BILLY-LILA Track Map
Season 1985-1986 Summaries: [BoM-AU] [JTWC-AU] [JTWC-SIO] [JTWC-SPAC] [JTWC-SH]
<<- Previous TC | BoM 1985-1986 Season | Next TC ->>

click for intensity scale information  Lat/long Grid: Show Hide

 Date Labels: Show Hide

Bureau of Meteorology Tropical Cyclone Data

Name: BILLY-LILA
Number: 693 / 198586_14

04 May 1986 18:00 UTC to 15 May 1986 03:00 UTC

    date/time    lat    long    hPa   cat  kts
1986-05-04 18    4.7    89.3   1002         25          
1986-05-05 00    4.8    90.2   1001         27          
1986-05-05 06    5.0    91.2   1000         29          
1986-05-05 12    5.5    91.8    999         33          
1986-05-05 18    6.1    92.2    997         35          
1986-05-06 00    6.5    92.3    993    1    43          
1986-05-06 06    7.1    92.4    990    1    47          
1986-05-06 12    7.5    92.7    990    1    47          
1986-05-06 18    7.8    92.8    990    1    47          
1986-05-07 00    8.1    93.1    988    1    51          
1986-05-07 06    8.5    93.4    985    2    54          
1986-05-07 12    8.7    93.5    984    2    54          
1986-05-07 18    9.3    93.6    982    2    58          
1986-05-08 00    9.7    93.4    980    2    60          
1986-05-08 03    9.9    93.2    979    2    62          
1986-05-08 06   10.1    92.9    978    2    62          
1986-05-08 09   10.4    92.8    977    2    64          
1986-05-08 12   10.9    92.7    976    2    66          
1986-05-08 16   11.4    92.4    968    3    76          
1986-05-08 18   11.6    92.3    960    3    84          
1986-05-08 21   11.9    91.9    960    3    84          
1986-05-09 00   12.3    91.8    960    3    84          
1986-05-09 06   13.0    91.1    960    3    84          
1986-05-09 12   13.7    90.3    960    3    84          
1986-05-09 18   14.4    89.7    960    3    84          
1986-05-10 00   15.0    89.5    959    3    86          
1986-05-10 06   15.9    89.6    958    3    86          
1986-05-10 12   16.8    89.7    954    4    91          
1986-05-10 18   17.8    90.0    950    4    93          
1986-05-11 00   18.6    90.9    954    4    93          
1986-05-11 06   19.4    92.0    962    3    82          
1986-05-11 12   20.1    93.1    970    3    74          
1986-05-11 18   20.5    94.5    976    2    66          
1986-05-12 00   21.7    96.3    982    2    58          
1986-05-12 06   22.7    99.0    988    1    51          
1986-05-12 12   23.4   101.3    991    1    47          
1986-05-12 18   25.0   103.8    994    1    41          
1986-05-13 00   26.1   106.7    996         37          
1986-05-13 06   27.4   109.9    998         33          
1986-05-13 12   28.3   113.6    999         33          
1986-05-13 18   29.7   116.2   1000         31          
1986-05-14 00   30.1   118.0   1001         27          
1986-05-14 06   30.7   120.5   1001         27          
1986-05-14 12   31.1   122.9   1002         25          
1986-05-14 18   31.1   125.2   1002         25          
1986-05-15 00   31.7   130.2   1004         23          
1986-05-15 03   32.0   131.8   1004         23          
Winds are 10-min average.

Tropical cyclone tracks developed by Michael Bath using data from the Bureau of Meteorology and Google Maps.


[Australian Severe Weather index] [Copyright Notice] [Email Contacts] [Search This Site] [Privacy Policy]
Document: tropical_cyclone_billy-lila.htm Updated: 30 May 2013